Time;durP1;ratioP1;P1;durP2;ratioP2;P2;SDS_P1;SDS_P2;PMS_P1;PMS_P2;Temp;Humidity;BMP_temperature;BMP_pressure;BME280_temperature;BME280_humidity;BME280_pressure;Samples;Min_cycle;Max_cycle;Signal;HPM_P1;HPM_P2
2022/10/06 00:00:05;;;;;;;17.13;2.20;;;;;;;;;;4962571;28;20046;-72
2022/10/06 00:02:34;;;;;;;14.35;2.00;;;;;;;;;;4964288;28;20226;-71
2022/10/06 00:05:00;;;;;;;18.27;2.90;;;;;;;;;;4963470;28;20496;-71
2022/10/06 00:07:26;;;;;;;19.05;2.40;;;;;;;;;;4967348;28;20121;-71
2022/10/06 00:09:52;;;;;;;13.98;3.13;;;;;;;;;;4960838;28;20412;-71
2022/10/06 00:12:18;;;;;;;22.73;2.92;;;;;;;;;;4967618;28;20042;-71
2022/10/06 00:14:44;;;;;;;24.98;2.92;;;;;;;;;;4965099;28;20042;-71
2022/10/06 00:17:10;;;;;;;17.52;2.28;;;;;;;;;;4964484;28;20726;-72
2022/10/06 00:19:36;;;;;;;14.15;2.47;;;;;;;;;;4965353;28;20042;-72
2022/10/06 00:22:02;;;;;;;14.00;2.13;;;;;;;;;;4964198;28;20133;-72
2022/10/06 00:24:28;;;;;;;16.83;2.45;;;;;;;;;;4980272;28;20058;-72
2022/10/06 00:26:54;;;;;;;17.52;2.35;;;;;;;;;;4967134;28;20030;-72
2022/10/06 00:29:20;;;;;;;23.77;3.10;;;;;;;;;;4963397;28;20115;-70
2022/10/06 00:31:46;;;;;;;17.23;2.50;;;;;;;;;;4966549;28;20035;-72
2022/10/06 00:34:12;;;;;;;16.55;3.15;;;;;;;;;;4967042;28;20117;-71
2022/10/06 00:36:38;;;;;;;20.27;2.60;;;;;;;;;;4971557;28;20480;-72
2022/10/06 00:39:04;;;;;;;23.35;4.25;;;;;;;;;;4969519;28;20050;-70
2022/10/06 00:41:30;;;;;;;18.63;3.50;;;;;;;;;;4969419;28;20097;-72
2022/10/06 00:43:57;;;;;;;21.50;2.90;;;;;;;;;;4966989;28;20034;-71
2022/10/06 00:46:26;;;;;;;18.27;2.88;;;;;;;;;;4972631;28;20042;-72
2022/10/06 00:48:58;;;;;;;18.88;2.28;;;;;;;;;;4973206;28;20046;-72
2022/10/06 00:51:26;;;;;;;17.40;2.47;;;;;;;;;;4963728;28;20099;-71
2022/10/06 00:53:52;;;;;;;19.23;2.58;;;;;;;;;;4966051;28;20042;-71
2022/10/06 00:56:18;;;;;;;18.88;2.50;;;;;;;;;;4970854;28;20676;-71
2022/10/06 00:58:45;;;;;;;14.43;2.33;;;;;;;;;;4971145;28;20591;-71
2022/10/06 01:01:12;;;;;;;18.52;2.28;;;;;;;;;;4968677;28;20066;-71
2022/10/06 01:03:40;;;;;;;21.42;2.53;;;;;;;;;;4968252;28;20489;-71
2022/10/06 01:06:06;;;;;;;20.00;2.35;;;;;;;;;;4968712;28;20034;-71
2022/10/06 01:08:33;;;;;;;17.75;3.25;;;;;;;;;;4968334;28;20038;-71
2022/10/06 01:10:59;;;;;;;21.90;2.92;;;;;;;;;;4968203;28;20098;-71
2022/10/06 01:13:26;;;;;;;12.15;2.60;;;;;;;;;;4968555;28;20030;-71
2022/10/06 01:16:03;;;;;;;16.42;2.78;;;;;;;;;;4970154;28;20031;-71
2022/10/06 01:18:30;;;;;;;16.55;3.10;;;;;;;;;;4967117;28;20106;-71
2022/10/06 01:21:01;;;;;;;14.65;2.42;;;;;;;;;;4966082;28;20133;-71
2022/10/06 01:23:30;;;;;;;17.85;2.33;;;;;;;;;;4965668;28;20040;-71
2022/10/06 01:25:56;;;;;;;26.13;3.97;;;;;;;;;;4967341;28;20158;-71
2022/10/06 01:28:22;;;;;;;19.02;2.63;;;;;;;;;;4968057;28;20030;-71
2022/10/06 01:30:51;;;;;;;19.77;2.22;;;;;;;;;;4967471;28;20030;-71
2022/10/06 01:33:18;;;;;;;19.83;4.00;;;;;;;;;;4967470;28;20492;-70
2022/10/06 01:35:48;;;;;;;20.15;2.20;;;;;;;;;;4966212;28;20539;-70
2022/10/06 01:38:14;;;;;;;15.40;2.17;;;;;;;;;;4966730;28;20027;-71
2022/10/06 01:40:40;;;;;;;13.07;2.03;;;;;;;;;;4969340;28;20555;-71
2022/10/06 01:43:06;;;;;;;19.42;2.38;;;;;;;;;;4968024;28;20043;-71
2022/10/06 01:45:32;;;;;;;14.50;2.42;;;;;;;;;;4965554;28;20047;-71
2022/10/06 01:47:58;;;;;;;22.33;2.70;;;;;;;;;;4963121;28;20481;-71
2022/10/06 01:50:24;;;;;;;20.38;2.30;;;;;;;;;;4968173;28;20069;-71
2022/10/06 01:52:50;;;;;;;16.42;2.50;;;;;;;;;;4967632;28;20042;-71
2022/10/06 01:55:18;;;;;;;18.65;2.42;;;;;;;;;;4967711;28;20031;-71
2022/10/06 01:57:44;;;;;;;24.08;2.63;;;;;;;;;;4967668;28;20061;-70
2022/10/06 02:00:11;;;;;;;14.98;2.65;;;;;;;;;;4966720;28;20035;-70
2022/10/06 02:02:37;;;;;;;17.73;2.50;;;;;;;;;;4962479;28;20046;-70
2022/10/06 02:05:03;;;;;;;19.95;3.05;;;;;;;;;;4962762;28;20109;-71
2022/10/06 02:07:29;;;;;;;16.70;2.45;;;;;;;;;;4966833;28;20503;-71
2022/10/06 02:09:55;;;;;;;19.33;2.85;;;;;;;;;;4966180;28;20054;-70
2022/10/06 02:12:21;;;;;;;19.52;4.25;;;;;;;;;;4969212;28;20121;-71
2022/10/06 02:14:47;;;;;;;21.50;2.42;;;;;;;;;;4967479;28;20081;-71
2022/10/06 02:17:13;;;;;;;20.08;2.30;;;;;;;;;;4967770;28;20705;-72
2022/10/06 02:19:39;;;;;;;14.95;2.15;;;;;;;;;;4968057;28;20023;-70
2022/10/06 02:22:05;;;;;;;14.13;2.30;;;;;;;;;;4964858;28;20522;-70
2022/10/06 02:24:31;;;;;;;20.83;2.33;;;;;;;;;;4966509;28;20117;-70
2022/10/06 02:26:57;;;;;;;22.30;2.78;;;;;;;;;;4966886;28;20059;-69
2022/10/06 02:29:24;;;;;;;15.40;2.22;;;;;;;;;;4984119;28;20527;-71
2022/10/06 02:31:51;;;;;;;13.50;1.98;;;;;;;;;;4963667;28;20034;-71
2022/10/06 02:34:17;;;;;;;16.70;2.63;;;;;;;;;;4965635;28;20042;-71
2022/10/06 02:36:43;;;;;;;19.60;2.00;;;;;;;;;;4970639;28;20093;-72
2022/10/06 02:39:09;;;;;;;22.77;4.30;;;;;;;;;;4970153;28;20042;-71
2022/10/06 02:41:35;;;;;;;17.90;3.45;;;;;;;;;;4967520;28;20054;-72
2022/10/06 02:44:01;;;;;;;16.52;2.30;;;;;;;;;;4964082;28;20031;-71
2022/10/06 02:46:27;;;;;;;16.00;2.85;;;;;;;;;;4962138;28;20592;-71
2022/10/06 02:48:53;;;;;;;13.23;2.83;;;;;;;;;;4969841;28;20110;-72
2022/10/06 02:51:20;;;;;;;14.13;2.30;;;;;;;;;;4966750;28;20038;-72
2022/10/06 02:53:47;;;;;;;18.15;2.50;;;;;;;;;;4965330;28;20031;-72
2022/10/06 02:56:21;;;;;;;18.67;2.92;;;;;;;;;;4962500;28;20043;-72
2022/10/06 02:58:47;;;;;;;16.75;1.60;;;;;;;;;;4970185;28;20043;-71
2022/10/06 03:01:17;;;;;;;19.65;2.97;;;;;;;;;;4968904;28;20038;-71
2022/10/06 03:03:45;;;;;;;17.27;2.20;;;;;;;;;;4966849;28;20027;-71
2022/10/06 03:06:23;;;;;;;26.27;3.33;;;;;;;;;;4964264;28;20022;-71
2022/10/06 03:08:53;;;;;;;19.05;2.40;;;;;;;;;;4967425;28;20034;-72
2022/10/06 03:11:20;;;;;;;20.88;2.35;;;;;;;;;;4964344;28;20492;-72
2022/10/06 03:13:48;;;;;;;19.77;2.47;;;;;;;;;;4966544;28;20458;-71
2022/10/06 03:16:15;;;;;;;16.30;2.78;;;;;;;;;;4967034;28;20027;-71
2022/10/06 03:18:43;;;;;;;23.13;2.92;;;;;;;;;;4966883;28;20089;-71
2022/10/06 03:21:09;;;;;;;24.55;3.80;;;;;;;;;;4966508;28;20038;-71
2022/10/06 03:23:35;;;;;;;16.00;2.70;;;;;;;;;;4964339;28;20035;-71
2022/10/06 03:26:01;;;;;;;17.00;3.05;;;;;;;;;;4966418;28;20436;-71
2022/10/06 03:28:27;;;;;;;11.85;2.45;;;;;;;;;;4964971;28;20105;-71
2022/10/06 03:30:53;;;;;;;17.98;2.20;;;;;;;;;;4966850;28;20411;-71
2022/10/06 03:33:19;;;;;;;16.38;2.10;;;;;;;;;;4964393;28;20042;-71
2022/10/06 03:35:46;;;;;;;21.65;2.33;;;;;;;;;;4962424;28;20330;-72
2022/10/06 03:38:12;;;;;;;19.45;2.20;;;;;;;;;;4963127;28;20113;-71
2022/10/06 03:40:38;;;;;;;24.17;4.10;;;;;;;;;;4964495;28;20535;-71
2022/10/06 03:43:03;;;;;;;27.67;2.90;;;;;;;;;;4963969;28;20324;-71
2022/10/06 03:45:29;;;;;;;20.73;3.03;;;;;;;;;;4964237;28;20106;-71
2022/10/06 03:47:55;;;;;;;22.60;2.97;;;;;;;;;;4966901;28;20481;-71
2022/10/06 03:50:21;;;;;;;13.45;2.30;;;;;;;;;;4968966;28;20039;-71
2022/10/06 03:52:50;;;;;;;20.83;2.65;;;;;;;;;;4969243;28;20030;-72
2022/10/06 03:55:16;;;;;;;24.27;3.03;;;;;;;;;;4964199;28;20160;-71
2022/10/06 03:57:42;;;;;;;20.75;2.55;;;;;;;;;;4963715;28;20059;-71
2022/10/06 04:00:08;;;;;;;22.90;2.47;;;;;;;;;;4965039;28;20030;-71
2022/10/06 04:02:34;;;;;;;17.02;2.78;;;;;;;;;;4967048;28;20034;-71
2022/10/06 04:05:00;;;;;;;13.88;2.35;;;;;;;;;;4966464;28;20027;-70
2022/10/06 04:07:26;;;;;;;16.92;2.75;;;;;;;;;;4964536;28;20680;-72
2022/10/06 04:09:52;;;;;;;15.13;2.70;;;;;;;;;;4963216;28;20027;-71
2022/10/06 04:12:18;;;;;;;19.70;3.53;;;;;;;;;;4969162;28;20039;-71
2022/10/06 04:14:44;;;;;;;20.77;2.88;;;;;;;;;;4969161;28;20046;-70
2022/10/06 04:17:10;;;;;;;22.33;3.10;;;;;;;;;;4964851;28;20039;-72
2022/10/06 04:19:37;;;;;;;18.90;3.05;;;;;;;;;;4969506;28;20042;-70
2022/10/06 04:22:03;;;;;;;25.63;3.28;;;;;;;;;;4969962;28;20089;-70
2022/10/06 04:24:29;;;;;;;15.50;2.40;;;;;;;;;;4971616;28;20019;-70
2022/10/06 04:27:26;;;;;;;21.65;3.40;;;;;;;;;;4970254;28;20119;-71
2022/10/06 04:29:41;;;;;;;21.13;2.63;;;;;;;;;;4971915;28;20031;-71
2022/10/06 04:32:07;;;;;;;18.15;2.53;;;;;;;;;;4969324;28;21989;-71
2022/10/06 04:34:33;;;;;;;14.75;2.60;;;;;;;;;;4973098;28;20440;-70
2022/10/06 04:36:59;;;;;;;17.70;2.90;;;;;;;;;;4971548;28;20098;-69
2022/10/06 04:39:25;;;;;;;22.08;3.05;;;;;;;;;;4984374;28;20039;-70
2022/10/06 04:41:51;;;;;;;21.20;3.10;;;;;;;;;;4968752;28;20397;-70
2022/10/06 04:44:18;;;;;;;21.45;4.15;;;;;;;;;;4967506;28;20042;-70
2022/10/06 04:46:44;;;;;;;18.63;2.55;;;;;;;;;;4970865;28;20074;-70
2022/10/06 04:49:10;;;;;;;20.08;2.65;;;;;;;;;;4970509;28;20026;-71
2022/10/06 04:51:36;;;;;;;20.40;2.70;;;;;;;;;;4969080;28;20587;-71
2022/10/06 04:54:02;;;;;;;24.85;2.20;;;;;;;;;;4969464;28;20062;-70
2022/10/06 04:56:29;;;;;;;19.73;2.53;;;;;;;;;;4969055;28;20091;-71
2022/10/06 04:58:55;;;;;;;17.70;2.85;;;;;;;;;;4969770;28;20404;-70
2022/10/06 05:01:23;;;;;;;20.92;3.55;;;;;;;;;;4971105;28;20031;-72
2022/10/06 05:03:51;;;;;;;32.05;3.80;;;;;;;;;;4965947;28;20401;-69
2022/10/06 05:06:24;;;;;;;26.45;3.22;;;;;;;;;;4970579;28;20031;-71
2022/10/06 05:08:52;;;;;;;20.55;2.75;;;;;;;;;;4970764;28;20053;-69
2022/10/06 05:11:18;;;;;;;25.88;2.75;;;;;;;;;;4984527;28;20026;-69
2022/10/06 05:13:45;;;;;;;26.88;3.22;;;;;;;;;;4971953;28;20105;-70
2022/10/06 05:16:12;;;;;;;24.92;3.50;;;;;;;;;;4968048;28;20042;-70
2022/10/06 05:18:38;;;;;;;22.80;2.67;;;;;;;;;;4967016;28;20042;-69
2022/10/06 05:21:06;;;;;;;22.75;2.53;;;;;;;;;;4966887;28;20468;-69
2022/10/06 05:23:33;;;;;;;21.67;2.97;;;;;;;;;;4980477;28;21485;-69
2022/10/06 05:26:00;;;;;;;23.58;3.88;;;;;;;;;;4967837;28;20116;-70
2022/10/06 05:28:28;;;;;;;15.80;2.35;;;;;;;;;;4973525;28;20031;-69
2022/10/06 05:31:04;;;;;;;24.30;3.15;;;;;;;;;;4967118;28;20100;-69
2022/10/06 05:33:31;;;;;;;20.40;2.53;;;;;;;;;;4969699;28;20027;-69
2022/10/06 05:35:58;;;;;;;28.23;3.22;;;;;;;;;;4969058;28;20042;-69
2022/10/06 05:38:26;;;;;;;22.17;3.03;;;;;;;;;;4968756;28;20624;-70
2022/10/06 05:40:59;;;;;;;29.58;3.05;;;;;;;;;;4964551;28;20038;-69
2022/10/06 05:43:25;;;;;;;24.48;3.25;;;;;;;;;;4966829;28;20046;-70
2022/10/06 05:45:52;;;;;;;15.90;3.08;;;;;;;;;;4965772;28;20049;-70
2022/10/06 05:48:18;;;;;;;26.05;2.72;;;;;;;;;;4967558;28;20047;-70
2022/10/06 05:50:44;;;;;;;24.83;3.75;;;;;;;;;;4966666;28;20038;-69
2022/10/06 05:53:10;;;;;;;22.63;3.85;;;;;;;;;;4978128;28;20038;-70
2022/10/06 05:55:36;;;;;;;28.30;3.10;;;;;;;;;;4967396;28;20063;-68
2022/10/06 05:58:02;;;;;;;29.38;3.58;;;;;;;;;;4966828;28;20092;-70
2022/10/06 06:00:29;;;;;;;15.35;3.60;;;;;;;;;;4967106;28;20035;-70
2022/10/06 06:02:55;;;;;;;22.55;3.35;;;;;;;;;;4966609;28;20030;-70
2022/10/06 06:05:21;;;;;;;19.58;2.90;;;;;;;;;;4969585;28;20264;-70
2022/10/06 06:07:47;;;;;;;21.83;2.92;;;;;;;;;;4967071;28;20514;-70
2022/10/06 06:10:13;;;;;;;20.98;3.75;;;;;;;;;;4966286;28;20027;-70
2022/10/06 06:12:39;;;;;;;24.45;2.92;;;;;;;;;;4968167;28;20038;-70
2022/10/06 06:18:11;;;;;;;16.33;2.75;;;;;;;;;;4984245;28;20038;-69
2022/10/06 06:20:37;;;;;;;26.67;4.55;;;;;;;;;;4986689;28;20031;-70
2022/10/06 06:23:03;;;;;;;24.73;3.35;;;;;;;;;;4978465;28;20060;-70
2022/10/06 06:25:29;;;;;;;16.10;2.75;;;;;;;;;;4968446;28;20572;-70
2022/10/06 06:27:55;;;;;;;29.50;3.75;;;;;;;;;;4961956;28;20062;-70
2022/10/06 06:30:22;;;;;;;17.90;3.22;;;;;;;;;;4972561;28;20089;-70
2022/10/06 06:32:48;;;;;;;20.15;3.60;;;;;;;;;;4963296;28;20027;-70
2022/10/06 06:35:14;;;;;;;30.98;4.47;;;;;;;;;;4970367;28;20034;-70
2022/10/06 06:37:40;;;;;;;26.60;3.50;;;;;;;;;;4970934;28;20026;-70
2022/10/06 06:40:07;;;;;;;23.08;3.03;;;;;;;;;;4971160;28;20031;-70
2022/10/06 06:42:33;;;;;;;32.47;4.38;;;;;;;;;;4971755;28;20046;-70
2022/10/06 06:44:59;;;;;;;21.70;3.22;;;;;;;;;;4967098;28;20035;-70
2022/10/06 06:47:25;;;;;;;17.85;3.40;;;;;;;;;;4962499;28;20030;-70
2022/10/06 06:49:51;;;;;;;21.13;3.83;;;;;;;;;;4970709;28;20117;-70
2022/10/06 06:52:19;;;;;;;32.30;4.72;;;;;;;;;;4987674;28;20035;-70
2022/10/06 06:54:46;;;;;;;24.35;3.42;;;;;;;;;;4986221;28;20117;-70
2022/10/06 06:57:12;;;;;;;30.67;3.97;;;;;;;;;;4974736;28;20053;-70
2022/10/06 06:59:38;;;;;;;14.40;3.53;;;;;;;;;;4970030;28;20034;-70
2022/10/06 07:02:04;;;;;;;18.88;3.42;;;;;;;;;;4971470;28;20047;-70
2022/10/06 07:04:31;;;;;;;26.73;3.92;;;;;;;;;;4974417;28;20042;-71
2022/10/06 07:06:57;;;;;;;31.70;4.65;;;;;;;;;;4971652;28;20046;-70
2022/10/06 07:09:26;;;;;;;28.77;4.28;;;;;;;;;;4972114;28;20447;-70
2022/10/06 07:11:53;;;;;;;23.45;3.30;;;;;;;;;;5006031;28;20034;-70
2022/10/06 07:14:22;;;;;;;27.00;3.00;;;;;;;;;;4990511;28;20110;-70
2022/10/06 07:25:05;;;;;;;20.45;3.13;;;;;;;;;;4990270;28;20110;-70
2022/10/06 07:27:33;;;;;;;27.33;3.50;;;;;;;;;;4985853;28;20063;-70
2022/10/06 07:29:59;;;;;;;18.38;3.45;;;;;;;;;;4985916;28;20031;-70
2022/10/06 07:32:26;;;;;;;19.33;3.65;;;;;;;;;;4979105;28;20031;-70
2022/10/06 07:34:52;;;;;;;17.73;2.95;;;;;;;;;;4977893;28;20023;-70
2022/10/06 07:37:18;;;;;;;17.80;3.22;;;;;;;;;;4970364;28;20158;-70
2022/10/06 07:39:48;;;;;;;18.70;3.10;;;;;;;;;;4971584;28;20046;-70
2022/10/06 07:42:14;;;;;;;21.67;2.95;;;;;;;;;;4969861;28;20495;-71
2022/10/06 07:44:41;;;;;;;22.13;3.35;;;;;;;;;;4988756;28;20490;-70
2022/10/06 07:47:08;;;;;;;20.67;2.78;;;;;;;;;;4987021;28;20034;-70
2022/10/06 07:49:34;;;;;;;26.33;3.38;;;;;;;;;;4980341;28;20109;-70
2022/10/06 07:52:04;;;;;;;16.40;2.88;;;;;;;;;;4979224;28;20043;-70
2022/10/06 07:54:30;;;;;;;16.27;2.65;;;;;;;;;;4977398;28;20030;-70
2022/10/06 07:56:56;;;;;;;18.95;3.03;;;;;;;;;;4989896;28;20057;-70
2022/10/06 07:59:22;;;;;;;20.83;3.42;;;;;;;;;;4994845;28;20027;-70
2022/10/06 08:01:50;;;;;;;20.88;3.47;;;;;;;;;;4979702;28;20110;-70
2022/10/06 08:04:16;;;;;;;21.88;2.75;;;;;;;;;;4975166;28;20061;-70
2022/10/06 08:06:42;;;;;;;15.20;2.67;;;;;;;;;;4972679;28;20049;-70
2022/10/06 08:09:08;;;;;;;19.35;2.40;;;;;;;;;;4974820;28;20535;-70
2022/10/06 08:11:34;;;;;;;18.95;3.47;;;;;;;;;;4973102;28;20035;-70
2022/10/06 08:14:00;;;;;;;18.33;3.75;;;;;;;;;;4974508;28;20484;-70
2022/10/06 08:16:28;;;;;;;11.75;3.70;;;;;;;;;;4974810;28;20472;-70
2022/10/06 08:18:55;;;;;;;16.05;2.90;;;;;;;;;;4974281;28;20073;-69
2022/10/06 08:21:23;;;;;;;21.85;3.17;;;;;;;;;;4979175;28;20448;-69
2022/10/06 08:23:49;;;;;;;17.83;3.10;;;;;;;;;;4980678;28;20026;-69
2022/10/06 08:26:16;;;;;;;14.35;3.53;;;;;;;;;;4985470;28;20507;-70
2022/10/06 08:28:43;;;;;;;20.13;2.65;;;;;;;;;;4968707;28;20476;-70
2022/10/06 08:31:10;;;;;;;26.15;3.15;;;;;;;;;;4973894;28;20095;-70
2022/10/06 08:33:37;;;;;;;17.30;3.15;;;;;;;;;;4973950;28;20034;-70
2022/10/06 08:36:07;;;;;;;12.90;2.88;;;;;;;;;;4974659;28;20062;-70
2022/10/06 08:38:34;;;;;;;22.77;3.05;;;;;;;;;;4975782;28;20030;-69
2022/10/06 08:41:00;;;;;;;16.27;2.58;;;;;;;;;;4986645;28;20110;-69
2022/10/06 08:43:26;;;;;;;11.40;2.30;;;;;;;;;;4974232;28;20081;-69
2022/10/06 08:45:58;;;;;;;20.92;3.28;;;;;;;;;;4981085;28;20030;-69
2022/10/06 08:48:27;;;;;;;15.15;2.58;;;;;;;;;;4976008;28;20039;-70
2022/10/06 08:51:00;;;;;;;17.27;2.40;;;;;;;;;;4969580;28;20274;-69
2022/10/06 08:53:26;;;;;;;16.25;2.80;;;;;;;;;;4973588;28;20085;-69
2022/10/06 08:55:54;;;;;;;18.38;3.17;;;;;;;;;;4973804;28;20030;-70
2022/10/06 08:58:35;;;;;;;17.23;2.70;;;;;;;;;;4978115;28;20457;-69
2022/10/06 09:01:08;;;;;;;18.83;2.88;;;;;;;;;;4985245;28;20023;-69
2022/10/06 09:03:37;;;;;;;15.93;3.60;;;;;;;;;;4978309;28;20113;-69
2022/10/06 09:06:11;;;;;;;17.15;3.60;;;;;;;;;;4974879;28;20106;-70
2022/10/06 09:08:42;;;;;;;14.02;2.83;;;;;;;;;;4975010;28;20101;-69
2022/10/06 09:11:26;;;;;;;14.45;2.47;;;;;;;;;;4974016;28;20030;-70
2022/10/06 09:13:55;;;;;;;15.38;2.33;;;;;;;;;;4974412;28;20202;-69
2022/10/06 09:16:27;;;;;;;13.25;2.72;;;;;;;;;;4972632;28;20552;-70
2022/10/06 09:18:58;;;;;;;17.27;2.45;;;;;;;;;;4980859;28;20035;-69
2022/10/06 09:21:34;;;;;;;14.27;2.47;;;;;;;;;;4972951;28;20039;-69
2022/10/06 09:24:04;;;;;;;21.83;3.40;;;;;;;;;;4973651;28;20567;-70
2022/10/06 09:26:31;;;;;;;21.40;3.85;;;;;;;;;;4973656;28;20041;-70
2022/10/06 09:28:57;;;;;;;17.23;2.55;;;;;;;;;;4988765;28;20293;-70
2022/10/06 09:31:23;;;;;;;13.10;1.80;;;;;;;;;;4986879;28;20042;-71
2022/10/06 09:33:51;;;;;;;12.55;2.30;;;;;;;;;;4988960;28;20050;-70
2022/10/06 09:36:18;;;;;;;11.45;2.45;;;;;;;;;;4974360;28;20035;-70
2022/10/06 09:38:52;;;;;;;13.40;2.75;;;;;;;;;;4973664;28;20023;-70
2022/10/06 09:41:19;;;;;;;11.27;2.00;;;;;;;;;;4970733;28;20067;-71
2022/10/06 09:43:56;;;;;;;16.88;2.33;;;;;;;;;;4973567;28;20027;-70
2022/10/06 09:46:42;;;;;;;11.68;1.80;;;;;;;;;;4975598;28;20022;-71
2022/10/06 09:49:16;;;;;;;14.93;2.65;;;;;;;;;;4976864;28;20030;-73
2022/10/06 09:51:57;;;;;;;11.02;2.38;;;;;;;;;;4982485;28;20553;-70
2022/10/06 09:54:24;;;;;;;12.23;2.08;;;;;;;;;;4973044;28;20302;-69
2022/10/06 09:56:52;;;;;;;10.45;2.25;;;;;;;;;;4973396;28;20042;-70
2022/10/06 09:59:39;;;;;;;10.80;2.00;;;;;;;;;;4974216;28;20030;-72
2022/10/06 10:02:19;;;;;;;7.82;1.42;;;;;;;;;;4975531;28;20042;-71
2022/10/06 10:04:45;;;;;;;13.07;1.80;;;;;;;;;;4976158;28;20472;-69
2022/10/06 10:07:15;;;;;;;6.50;1.40;;;;;;;;;;4987934;28;20023;-72
2022/10/06 10:09:41;;;;;;;9.90;1.48;;;;;;;;;;4975557;28;20086;-70
2022/10/06 10:12:28;;;;;;;11.27;1.63;;;;;;;;;;4972815;28;20034;-71
2022/10/06 10:14:57;;;;;;;7.95;1.70;;;;;;;;;;4972265;28;20031;-70
2022/10/06 10:17:32;;;;;;;12.00;1.40;;;;;;;;;;4971357;28;20576;-70
2022/10/06 10:19:59;;;;;;;9.73;1.52;;;;;;;;;;4971514;28;20042;-70
2022/10/06 10:22:41;;;;;;;8.60;1.23;;;;;;;;;;4972057;28;20500;-70
2022/10/06 10:25:12;;;;;;;9.80;2.10;;;;;;;;;;4970767;28;20093;-71
2022/10/06 10:27:38;;;;;;;7.95;1.75;;;;;;;;;;4972269;28;20054;-70
2022/10/06 10:30:13;;;;;;;12.55;1.70;;;;;;;;;;4971319;28;20477;-69
2022/10/06 10:32:54;;;;;;;11.68;1.60;;;;;;;;;;4985052;28;20042;-70
2022/10/06 10:35:41;;;;;;;10.23;1.73;;;;;;;;;;4975022;28;20050;-70
2022/10/06 10:38:14;;;;;;;5.88;1.30;;;;;;;;;;4973244;28;20026;-70
2022/10/06 10:40:52;;;;;;;10.93;1.77;;;;;;;;;;4971205;28;20027;-69
2022/10/06 10:43:30;;;;;;;15.73;2.30;;;;;;;;;;4971632;28;20477;-70
2022/10/06 10:46:09;;;;;;;11.80;1.90;;;;;;;;;;4971688;28;20033;-70
2022/10/06 10:48:39;;;;;;;10.73;1.63;;;;;;;;;;4972038;28;20031;-70
2022/10/06 10:51:26;;;;;;;11.27;1.58;;;;;;;;;;4973081;28;20045;-69
2022/10/06 10:54:04;;;;;;;11.30;1.90;;;;;;;;;;4971129;28;20026;-70
2022/10/06 10:56:31;;;;;;;18.15;1.40;;;;;;;;;;4971862;28;20085;-70
2022/10/06 10:59:06;;;;;;;10.32;1.75;;;;;;;;;;4971937;28;20065;-69
2022/10/06 11:01:35;;;;;;;16.83;2.30;;;;;;;;;;4978030;28;20030;-70
2022/10/06 11:04:02;;;;;;;10.50;2.15;;;;;;;;;;4982161;28;20023;-70
2022/10/06 11:06:28;;;;;;;11.02;1.75;;;;;;;;;;4971634;28;20107;-69
2022/10/06 11:08:57;;;;;;;11.98;2.08;;;;;;;;;;4972009;28;20423;-69
2022/10/06 11:11:36;;;;;;;9.73;1.77;;;;;;;;;;4971605;28;20062;-70
2022/10/06 11:14:04;;;;;;;8.48;1.65;;;;;;;;;;4971781;28;20095;-69
2022/10/06 11:16:40;;;;;;;11.40;1.80;;;;;;;;;;4980093;28;20023;-70
2022/10/06 11:19:06;;;;;;;10.25;2.00;;;;;;;;;;4973352;28;20030;-69
2022/10/06 11:21:35;;;;;;;13.18;1.90;;;;;;;;;;4970480;28;20022;-70
2022/10/06 11:24:20;;;;;;;10.73;1.88;;;;;;;;;;4973580;28;20030;-70
2022/10/06 11:27:07;;;;;;;15.40;1.73;;;;;;;;;;4972262;28;20048;-70
2022/10/06 11:29:59;;;;;;;10.15;1.60;;;;;;;;;;4990586;28;20050;-71
2022/10/06 11:32:45;;;;;;;13.57;2.00;;;;;;;;;;4983796;28;20171;-69
2022/10/06 11:35:16;;;;;;;11.77;1.60;;;;;;;;;;4970025;28;20098;-69
2022/10/06 11:37:51;;;;;;;12.20;1.85;;;;;;;;;;4970782;28;20034;-69
2022/10/06 11:40:36;;;;;;;8.02;1.60;;;;;;;;;;4970537;28;20038;-70
2022/10/06 11:43:16;;;;;;;16.38;1.73;;;;;;;;;;4971070;28;20034;-70
2022/10/06 11:45:48;;;;;;;11.40;1.70;;;;;;;;;;4970206;28;20027;-70
2022/10/06 11:48:21;;;;;;;9.35;1.58;;;;;;;;;;4980861;28;20057;-71
2022/10/06 11:50:51;;;;;;;8.73;1.60;;;;;;;;;;4987139;28;20037;-71
2022/10/06 11:53:35;;;;;;;12.77;1.47;;;;;;;;;;4963973;28;20031;-71
2022/10/06 11:56:17;;;;;;;9.23;1.80;;;;;;;;;;4981475;28;20309;-71
2022/10/06 11:58:55;;;;;;;12.07;1.38;;;;;;;;;;4982572;28;20061;-70
2022/10/06 12:01:27;;;;;;;11.15;1.60;;;;;;;;;;4990711;28;20062;-70
2022/10/06 12:04:13;;;;;;;26.05;1.85;;;;;;;;;;4987321;28;20019;-71
2022/10/06 12:06:51;;;;;;;9.52;1.70;;;;;;;;;;4970338;28;20023;-70
2022/10/06 12:09:23;;;;;;;9.60;2.05;;;;;;;;;;4959030;28;20027;-70
2022/10/06 12:11:50;;;;;;;10.68;1.52;;;;;;;;;;4990531;28;20032;-70
2022/10/06 12:14:23;;;;;;;12.32;1.75;;;;;;;;;;4965408;28;20440;-70
2022/10/06 12:16:53;;;;;;;6.90;1.65;;;;;;;;;;4982288;28;20048;-69
2022/10/06 12:19:32;;;;;;;9.82;1.80;;;;;;;;;;4964414;28;20030;-70
2022/10/06 12:21:59;;;;;;;13.02;1.77;;;;;;;;;;4969261;28;20038;-71
2022/10/06 12:24:40;;;;;;;7.65;1.40;;;;;;;;;;4962398;28;20082;-70
2022/10/06 12:27:09;;;;;;;11.27;1.88;;;;;;;;;;4974049;28;20423;-69
2022/10/06 12:29:42;;;;;;;9.43;1.55;;;;;;;;;;4987352;28;20311;-71
2022/10/06 12:32:08;;;;;;;6.70;1.33;;;;;;;;;;4979815;28;20084;-72
2022/10/06 12:34:41;;;;;;;10.68;1.58;;;;;;;;;;4990828;28;20401;-71
2022/10/06 12:37:30;;;;;;;11.60;1.58;;;;;;;;;;4974128;28;20035;-69
2022/10/06 12:40:15;;;;;;;6.80;1.48;;;;;;;;;;4967862;28;20077;-70
2022/10/06 12:42:41;;;;;;;11.65;1.85;;;;;;;;;;4970012;28;20125;-72
2022/10/06 12:45:16;;;;;;;11.35;2.00;;;;;;;;;;4964763;28;20031;-71
2022/10/06 12:47:43;;;;;;;12.13;1.40;;;;;;;;;;4968568;28;20488;-71
2022/10/06 12:50:12;;;;;;;7.95;1.58;;;;;;;;;;4965931;28;20157;-71
2022/10/06 12:53:10;;;;;;;11.25;1.63;;;;;;;;;;4968389;28;20072;-71
2022/10/06 12:55:50;;;;;;;7.68;1.73;;;;;;;;;;4976704;28;20524;-70
2022/10/06 12:58:25;;;;;;;9.20;1.50;;;;;;;;;;4967210;28;20050;-70
2022/10/06 13:00:51;;;;;;;10.68;2.03;;;;;;;;;;4968489;28;20133;-70
2022/10/06 13:03:23;;;;;;;10.40;1.55;;;;;;;;;;4965948;28;20051;-70
2022/10/06 13:05:54;;;;;;;10.60;1.90;;;;;;;;;;4971931;28;20030;-70
2022/10/06 13:08:21;;;;;;;10.02;1.88;;;;;;;;;;4973853;28;20023;-70
2022/10/06 13:10:47;;;;;;;10.80;1.95;;;;;;;;;;4966798;28;20108;-70
2022/10/06 13:13:23;;;;;;;9.98;1.73;;;;;;;;;;4981835;28;20031;-70
2022/10/06 13:15:49;;;;;;;15.05;1.83;;;;;;;;;;4968628;28;20544;-70
2022/10/06 13:18:15;;;;;;;11.35;1.80;;;;;;;;;;4976901;28;20066;-70
2022/10/06 13:20:41;;;;;;;6.20;1.60;;;;;;;;;;4973257;28;20444;-71
2022/10/06 13:23:22;;;;;;;6.55;1.40;;;;;;;;;;4972731;28;20424;-69
2022/10/06 13:25:52;;;;;;;11.32;1.92;;;;;;;;;;4973110;28;20023;-72
2022/10/06 13:28:18;;;;;;;9.38;1.70;;;;;;;;;;4969197;28;20031;-70
2022/10/06 13:30:49;;;;;;;12.25;2.35;;;;;;;;;;4965928;28;20035;-70
2022/10/06 13:33:15;;;;;;;10.77;2.15;;;;;;;;;;4969573;28;20030;-71
2022/10/06 13:35:41;;;;;;;12.60;2.17;;;;;;;;;;4967126;28;20035;-70
2022/10/06 13:38:07;;;;;;;9.15;1.80;;;;;;;;;;4972282;28;20043;-69
2022/10/06 13:40:33;;;;;;;10.82;2.05;;;;;;;;;;4969608;28;20042;-70
2022/10/06 13:43:01;;;;;;;17.95;2.05;;;;;;;;;;4972343;28;20043;-69
2022/10/06 13:45:27;;;;;;;8.25;1.70;;;;;;;;;;4973074;28;20061;-72
2022/10/06 13:48:14;;;;;;;11.85;1.48;;;;;;;;;;4971280;28;20177;-69
2022/10/06 13:50:44;;;;;;;11.02;2.25;;;;;;;;;;4976004;28;20456;-70
2022/10/06 13:53:26;;;;;;;7.60;2.08;;;;;;;;;;4969883;28;20039;-70
2022/10/06 13:55:53;;;;;;;9.48;1.75;;;;;;;;;;4970301;28;20022;-69
2022/10/06 13:58:22;;;;;;;15.63;1.60;;;;;;;;;;4972072;28;20062;-70
2022/10/06 14:00:56;;;;;;;8.68;1.85;;;;;;;;;;4973877;28;20178;-70
2022/10/06 14:03:27;;;;;;;10.55;1.75;;;;;;;;;;4972762;28;20039;-70
2022/10/06 14:06:11;;;;;;;14.73;1.70;;;;;;;;;;4972560;28;20116;-70
2022/10/06 14:08:38;;;;;;;10.50;2.53;;;;;;;;;;4973271;28;20039;-70
2022/10/06 14:11:08;;;;;;;9.77;2.38;;;;;;;;;;4981163;28;20080;-70
2022/10/06 14:13:50;;;;;;;9.77;1.57;;;;;;;;;;4966228;28;20039;-70
2022/10/06 14:16:21;;;;;;;10.15;2.03;;;;;;;;;;4967437;28;20309;-70
2022/10/06 14:18:57;;;;;;;28.58;2.00;;;;;;;;;;4965583;28;20804;-71
2022/10/06 14:21:29;;;;;;;16.05;1.70;;;;;;;;;;4967699;28;20110;-71
2022/10/06 14:23:55;;;;;;;10.45;1.65;;;;;;;;;;4967811;28;20026;-70
2022/10/06 14:26:25;;;;;;;6.93;1.15;;;;;;;;;;4966244;28;20031;-71
2022/10/06 14:28:52;;;;;;;8.68;1.60;;;;;;;;;;4968947;28;20041;-72
2022/10/06 14:31:19;;;;;;;7.40;1.20;;;;;;;;;;4968459;28;20019;-71
2022/10/06 14:33:46;;;;;;;17.08;2.33;;;;;;;;;;4968076;28;20039;-71
2022/10/06 14:36:16;;;;;;;7.28;1.38;;;;;;;;;;4970380;28;20027;-71
2022/10/06 14:38:42;;;;;;;10.53;1.60;;;;;;;;;;4968381;28;20495;-71
2022/10/06 14:41:09;;;;;;;13.98;1.90;;;;;;;;;;4969081;28;20492;-71
2022/10/06 14:43:34;;;;;;;14.40;1.85;;;;;;;;;;4981693;28;20090;-71
2022/10/06 14:46:01;;;;;;;9.13;1.40;;;;;;;;;;4968150;28;20063;-71
2022/10/06 14:48:27;;;;;;;22.95;2.25;;;;;;;;;;4968351;28;20039;-71
2022/10/06 14:50:53;;;;;;;11.40;1.50;;;;;;;;;;4968362;28;20085;-71
2022/10/06 14:53:19;;;;;;;7.55;1.38;;;;;;;;;;4966785;28;20073;-70